Time;durP1;ratioP1;P1;durP2;ratioP2;P2;SDS_P1;SDS_P2;PMS_P1;PMS_P2;Temp;Humidity;BMP_temperature;BMP_pressure;BME280_temperature;BME280_humidity;BME280_pressure;Samples;Min_cycle;Max_cycle;Signal;HPM_P1;HPM_P2
2022/12/27 00:00:21;;;;;;;6.63;1.33;;;;;;;;;;4975244;28;20038;-93
2022/12/27 00:02:47;;;;;;;4.43;1.13;;;;;;;;;;4991607;28;20034;-93
2022/12/27 00:05:20;;;;;;;5.05;1.42;;;;;;;;;;4987529;28;20053;-93
2022/12/27 00:07:46;;;;;;;0.77;0.47;;;;;;;;;;4953852;28;20049;-92
2022/12/27 00:10:12;;;;;;;9.30;1.30;;;;;;;;;;4950983;28;20058;-93
2022/12/27 00:12:38;;;;;;;9.15;1.83;;;;;;;;;;4988525;28;20031;-93
2022/12/27 00:15:04;;;;;;;15.15;1.35;;;;;;;;;;4970270;28;20031;-93
2022/12/27 00:17:30;;;;;;;9.23;1.70;;;;;;;;;;4988837;28;22243;-91
2022/12/27 00:19:56;;;;;;;6.40;1.33;;;;;;;;;;4973727;28;20053;-92
2022/12/27 00:22:23;;;;;;;6.75;1.38;;;;;;;;;;4957774;28;20027;-92
2022/12/27 00:24:49;;;;;;;4.47;1.27;;;;;;;;;;4961831;28;20034;-92
2022/12/27 00:27:15;;;;;;;10.02;1.35;;;;;;;;;;4966946;28;20026;-91
2022/12/27 00:29:41;;;;;;;11.77;1.23;;;;;;;;;;4959283;28;20498;-91
2022/12/27 00:32:07;;;;;;;15.05;1.85;;;;;;;;;;4971801;28;20025;-91
2022/12/27 00:34:34;;;;;;;10.40;2.25;;;;;;;;;;4958088;28;20049;-93
2022/12/27 00:37:00;;;;;;;6.07;1.33;;;;;;;;;;4994175;28;20053;-93
2022/12/27 00:39:26;;;;;;;7.40;1.00;;;;;;;;;;4959647;28;20074;-92
2022/12/27 00:41:52;;;;;;;17.42;1.85;;;;;;;;;;4975446;28;20085;-92
2022/12/27 00:44:18;;;;;;;14.52;2.13;;;;;;;;;;4959878;28;20073;-92
2022/12/27 00:46:44;;;;;;;9.32;2.25;;;;;;;;;;4969933;28;20065;-92
2022/12/27 00:49:10;;;;;;;18.05;2.40;;;;;;;;;;4969022;28;20058;-92
2022/12/27 00:51:36;;;;;;;5.53;1.67;;;;;;;;;;4989407;28;20619;-92
2022/12/27 00:54:02;;;;;;;19.67;2.25;;;;;;;;;;4969481;28;20030;-92
2022/12/27 00:56:29;;;;;;;11.90;1.52;;;;;;;;;;4988757;28;20026;-90
2022/12/27 00:58:57;;;;;;;15.90;2.22;;;;;;;;;;4990484;28;20627;-92
2022/12/27 01:01:23;;;;;;;5.93;1.52;;;;;;;;;;4986966;28;20030;-92
2022/12/27 01:03:49;;;;;;;17.88;1.55;;;;;;;;;;4989737;28;20099;-92
2022/12/27 01:06:18;;;;;;;13.40;1.95;;;;;;;;;;4973025;28;20041;-91
2022/12/27 01:08:44;;;;;;;10.57;1.60;;;;;;;;;;4991432;28;20025;-92
2022/12/27 01:11:11;;;;;;;8.02;1.38;;;;;;;;;;5009847;28;20032;-93
2022/12/27 01:13:37;;;;;;;8.07;1.65;;;;;;;;;;4978968;28;20038;-92
2022/12/27 01:16:11;;;;;;;13.52;1.98;;;;;;;;;;4999941;28;20033;-91
2022/12/27 01:18:37;;;;;;;7.47;1.83;;;;;;;;;;4971706;28;20088;-91
2022/12/27 01:21:12;;;;;;;2.78;0.45;;;;;;;;;;4974629;28;20041;-91
2022/12/27 01:23:38;;;;;;;5.35;1.42;;;;;;;;;;4987669;28;20066;-92
2022/12/27 01:26:06;;;;;;;6.07;1.10;;;;;;;;;;4972267;28;20473;-92
2022/12/27 01:28:32;;;;;;;12.73;1.20;;;;;;;;;;5000425;28;20400;-92
2022/12/27 01:30:58;;;;;;;5.55;1.27;;;;;;;;;;4993979;28;20092;-92
2022/12/27 01:33:24;;;;;;;6.15;0.88;;;;;;;;;;4989906;28;20034;-92
2022/12/27 01:35:50;;;;;;;7.72;1.25;;;;;;;;;;4984508;28;20054;-91
2022/12/27 01:38:16;;;;;;;5.35;0.98;;;;;;;;;;4973119;28;20091;-92
2022/12/27 01:40:42;;;;;;;1.75;0.50;;;;;;;;;;4987082;28;20046;-92
2022/12/27 01:43:16;;;;;;;8.25;1.08;;;;;;;;;;4987004;28;20040;-91
2022/12/27 01:45:42;;;;;;;13.07;1.50;;;;;;;;;;5000827;28;20046;-90
2022/12/27 01:48:17;;;;;;;6.85;1.67;;;;;;;;;;4972007;28;20037;-92
2022/12/27 01:50:43;;;;;;;1.40;0.80;;;;;;;;;;5006226;28;20085;-91
2022/12/27 01:53:12;;;;;;;4.70;0.93;;;;;;;;;;4988904;28;20069;-92
2022/12/27 01:55:42;;;;;;;9.32;1.38;;;;;;;;;;5003618;28;20478;-92
2022/12/27 01:58:34;;;;;;;1.52;0.75;;;;;;;;;;5000447;28;20026;-91
2022/12/27 02:01:01;;;;;;;3.42;0.77;;;;;;;;;;4959476;28;20505;-92
2022/12/27 02:03:30;;;;;;;5.38;1.02;;;;;;;;;;4971906;28;20040;-91
2022/12/27 02:05:57;;;;;;;3.30;0.77;;;;;;;;;;4986085;28;20137;-91
2022/12/27 02:08:30;;;;;;;6.32;1.85;;;;;;;;;;4991781;28;20028;-92
2022/12/27 02:10:57;;;;;;;6.43;1.48;;;;;;;;;;4987740;28;20036;-92
2022/12/27 02:13:23;;;;;;;8.80;1.30;;;;;;;;;;4971635;28;20026;-92
2022/12/27 02:15:49;;;;;;;6.20;1.30;;;;;;;;;;4970963;28;20038;-90
2022/12/27 02:18:15;;;;;;;4.80;1.30;;;;;;;;;;4975340;28;20058;-93
2022/12/27 02:21:01;;;;;;;2.65;1.05;;;;;;;;;;4987410;28;20038;-92
2022/12/27 02:24:01;;;;;;;13.30;2.00;;;;;;;;;;4986102;28;20304;-93
2022/12/27 02:26:27;;;;;;;3.58;0.80;;;;;;;;;;4989633;28;20032;-92
2022/12/27 02:29:00;;;;;;;8.80;2.10;;;;;;;;;;4999956;28;20069;-92
2022/12/27 02:31:41;;;;;;;9.43;1.48;;;;;;;;;;5009065;28;20030;-91
2022/12/27 02:34:13;;;;;;;7.07;1.52;;;;;;;;;;4987859;28;20026;-91
2022/12/27 02:36:39;;;;;;;8.20;1.65;;;;;;;;;;4995232;28;21324;-92
2022/12/27 02:39:06;;;;;;;10.70;1.40;;;;;;;;;;4991635;28;20686;-92
2022/12/27 02:55:29;;;;;;;8.27;1.02;;;;;;;;;;5016644;28;20119;-93
2022/12/27 02:58:14;;;;;;;8.32;1.35;;;;;;;;;;5008118;28;20672;-93
2022/12/27 03:03:40;;;;;;;12.00;2.05;;;;;;;;;;5016560;28;20104;-93
2022/12/27 03:15:55;;;;;;;7.78;1.00;;;;;;;;;;4923664;29;20054;-93
2022/12/27 03:18:27;;;;;;;7.85;1.23;;;;;;;;;;4982788;28;20523;-93
2022/12/27 03:26:26;;;;;;;7.55;2.25;;;;;;;;;;5004737;28;21442;-93
2022/12/27 03:34:30;;;;;;;12.40;1.55;;;;;;;;;;5000016;28;20079;-92
2022/12/27 03:39:53;;;;;;;4.47;0.95;;;;;;;;;;5008308;28;20235;-93
2022/12/27 03:45:17;;;;;;;3.40;0.68;;;;;;;;;;5031260;28;20076;-92
2022/12/27 03:47:48;;;;;;;10.00;1.65;;;;;;;;;;5012685;28;20068;-92
2022/12/27 03:50:24;;;;;;;12.60;1.55;;;;;;;;;;5013444;28;20029;-92
2022/12/27 03:52:54;;;;;;;10.57;1.88;;;;;;;;;;4989672;28;20052;-93
2022/12/27 03:55:20;;;;;;;6.57;1.42;;;;;;;;;;4990945;28;20559;-93
2022/12/27 03:57:46;;;;;;;12.13;2.75;;;;;;;;;;4988835;28;20026;-91
2022/12/27 04:00:19;;;;;;;7.10;1.67;;;;;;;;;;4992091;28;20408;-93
2022/12/27 04:02:45;;;;;;;7.00;1.42;;;;;;;;;;4969685;28;20111;-92
2022/12/27 04:05:24;;;;;;;9.05;1.20;;;;;;;;;;4724899;28;8144854;-93
2022/12/27 04:35:16;;;;;;;18.92;2.05;;;;;;;;;;4990615;28;20049;-92
2022/12/27 04:37:42;;;;;;;13.10;1.23;;;;;;;;;;4977183;28;20646;-94
2022/12/27 04:56:37;;;;;;;1.95;1.10;;;;;;;;;;5002971;28;20257;-93
2022/12/27 05:02:08;;;;;;;7.53;1.13;;;;;;;;;;4990877;28;20072;-92
2022/12/27 05:04:34;;;;;;;;;;;;;;;;;;4984888;28;20129;-92
2022/12/27 05:13:58;;;;;;;27.05;2.38;;;;;;;;;;4989074;28;20000;-92
2022/12/27 05:15:15;;;;;;;18.77;2.55;;;;;;;;;;4992047;28;20437;-92
2022/12/27 05:17:41;;;;;;;7.35;1.33;;;;;;;;;;4968973;28;20406;-92
2022/12/27 05:20:08;;;;;;;15.80;1.65;;;;;;;;;;4970050;28;20034;-93
2022/12/27 05:25:33;;;;;;;5.18;1.02;;;;;;;;;;5006636;28;20095;-92
2022/12/27 05:27:59;;;;;;;5.30;1.15;;;;;;;;;;4992173;28;20042;-92
2022/12/27 05:30:26;;;;;;;6.97;1.98;;;;;;;;;;4976147;28;20618;-92
2022/12/27 05:32:55;;;;;;;22.80;2.47;;;;;;;;;;4999870;28;20036;-92
2022/12/27 05:35:21;;;;;;;12.10;1.25;;;;;;;;;;4974142;28;20033;-93
2022/12/27 05:37:47;;;;;;;11.75;2.08;;;;;;;;;;5011125;28;20045;-92
2022/12/27 05:40:13;;;;;;;10.73;2.78;;;;;;;;;;5005140;28;20026;-93
2022/12/27 05:42:39;;;;;;;12.65;1.75;;;;;;;;;;4989425;28;20508;-93
2022/12/27 05:45:05;;;;;;;17.17;1.67;;;;;;;;;;4989553;28;20037;-93
2022/12/27 05:47:32;;;;;;;10.75;2.13;;;;;;;;;;4988024;28;20050;-94
2022/12/27 05:49:58;;;;;;;14.68;2.33;;;;;;;;;;4974753;28;20062;-94
2022/12/27 05:52:24;;;;;;;8.43;1.38;;;;;;;;;;4969349;28;20030;-94
2022/12/27 05:54:50;;;;;;;7.45;1.70;;;;;;;;;;4976265;28;20022;-94
2022/12/27 05:57:16;;;;;;;16.13;3.10;;;;;;;;;;4973565;28;20530;-94
2022/12/27 05:59:43;;;;;;;6.80;1.50;;;;;;;;;;4975028;28;20582;-94
2022/12/27 06:02:09;;;;;;;9.40;2.55;;;;;;;;;;5008137;28;20114;-94
2022/12/27 06:04:35;;;;;;;17.58;1.50;;;;;;;;;;4988660;28;20034;-94
2022/12/27 06:07:01;;;;;;;11.05;1.98;;;;;;;;;;4971979;28;20046;-93
2022/12/27 06:09:27;;;;;;;15.32;2.03;;;;;;;;;;4990279;28;20117;-95
2022/12/27 06:11:53;;;;;;;11.60;2.33;;;;;;;;;;4990109;28;20034;-93
2022/12/27 06:14:19;;;;;;;10.77;2.15;;;;;;;;;;4970196;28;20038;-92
2022/12/27 06:16:45;;;;;;;11.30;2.10;;;;;;;;;;4989804;28;20029;-94
2022/12/27 06:19:16;;;;;;;13.20;2.35;;;;;;;;;;4971118;28;20035;-93
2022/12/27 06:21:42;;;;;;;7.32;1.95;;;;;;;;;;5000637;28;20113;-94
2022/12/27 06:24:12;;;;;;;26.92;3.05;;;;;;;;;;4993029;28;20052;-93
2022/12/27 06:26:38;;;;;;;14.40;2.63;;;;;;;;;;4987453;28;20088;-93
2022/12/27 06:29:04;;;;;;;11.48;1.42;;;;;;;;;;4990679;28;20034;-93
2022/12/27 06:31:30;;;;;;;14.98;2.70;;;;;;;;;;4996632;28;20033;-95
2022/12/27 06:33:57;;;;;;;19.63;2.33;;;;;;;;;;4988056;28;20065;-94
2022/12/27 06:36:31;;;;;;;21.38;2.63;;;;;;;;;;4995567;28;20485;-94
2022/12/27 06:38:57;;;;;;;7.30;1.95;;;;;;;;;;4977404;28;20030;-94
2022/12/27 06:41:23;;;;;;;9.60;2.10;;;;;;;;;;4979195;28;20064;-93
2022/12/27 06:43:53;;;;;;;15.50;3.60;;;;;;;;;;4997742;28;20061;-94
2022/12/27 06:46:19;;;;;;;8.40;1.90;;;;;;;;;;4994817;28;20029;-94
2022/12/27 06:48:55;;;;;;;6.80;2.30;;;;;;;;;;4981162;28;20037;-94
2022/12/27 06:51:21;;;;;;;15.07;1.77;;;;;;;;;;4977425;28;20025;-94
2022/12/27 06:53:48;;;;;;;9.95;2.38;;;;;;;;;;4974785;28;20062;-94
2022/12/27 06:56:15;;;;;;;8.98;2.03;;;;;;;;;;4990715;28;20030;-93
2022/12/27 06:58:41;;;;;;;12.07;1.98;;;;;;;;;;5004758;28;20026;-94
2022/12/27 07:01:08;;;;;;;18.65;2.33;;;;;;;;;;4991563;28;20030;-93
2022/12/27 07:03:36;;;;;;;12.25;1.00;;;;;;;;;;5002008;28;20401;-93
2022/12/27 07:06:05;;;;;;;8.13;1.92;;;;;;;;;;4973436;28;20552;-94
2022/12/27 07:08:32;;;;;;;17.73;2.83;;;;;;;;;;4993238;28;20096;-94
2022/12/27 07:11:04;;;;;;;7.65;1.83;;;;;;;;;;4996235;28;20033;-94
2022/12/27 07:13:35;;;;;;;13.50;2.22;;;;;;;;;;4994355;28;20137;-94
2022/12/27 07:16:05;;;;;;;12.55;2.55;;;;;;;;;;4997293;28;20053;-94
2022/12/27 07:18:32;;;;;;;7.38;1.92;;;;;;;;;;4981932;28;20046;-94
2022/12/27 07:20:58;;;;;;;6.55;1.20;;;;;;;;;;5004616;28;20034;-94
2022/12/27 07:23:26;;;;;;;7.63;1.52;;;;;;;;;;4994308;28;20052;-94
2022/12/27 07:25:52;;;;;;;9.93;2.25;;;;;;;;;;4995722;28;20030;-93
2022/12/27 07:28:19;;;;;;;15.60;2.78;;;;;;;;;;4994373;28;20125;-94
2022/12/27 07:30:48;;;;;;;11.43;1.17;;;;;;;;;;4993192;28;20536;-94
2022/12/27 07:33:14;;;;;;;11.77;2.28;;;;;;;;;;4982507;28;20041;-94
2022/12/27 07:35:43;;;;;;;13.82;3.30;;;;;;;;;;4987547;28;20366;-94
2022/12/27 07:38:12;;;;;;;5.88;0.60;;;;;;;;;;4977533;28;20057;-93
2022/12/27 07:40:46;;;;;;;16.67;3.42;;;;;;;;;;4978982;28;20046;-94
2022/12/27 07:43:12;;;;;;;9.75;1.83;;;;;;;;;;4985260;28;20029;-93
2022/12/27 07:45:38;;;;;;;24.13;2.38;;;;;;;;;;4997232;28;20076;-94
2022/12/27 07:48:04;;;;;;;8.65;2.58;;;;;;;;;;5009326;28;20026;-94
2022/12/27 07:50:30;;;;;;;9.20;1.95;;;;;;;;;;4992351;28;20612;-94
2022/12/27 07:52:56;;;;;;;21.52;2.67;;;;;;;;;;4994747;28;20259;-93
2022/12/27 07:55:22;;;;;;;12.10;2.22;;;;;;;;;;4992061;28;20025;-94
2022/12/27 07:57:48;;;;;;;2.72;1.17;;;;;;;;;;4988955;28;20390;-93
2022/12/27 08:00:15;;;;;;;11.15;2.15;;;;;;;;;;4981124;28;20057;-94
2022/12/27 08:02:42;;;;;;;13.98;1.55;;;;;;;;;;5005864;28;20084;-93
2022/12/27 08:05:11;;;;;;;10.00;2.30;;;;;;;;;;4977214;28;20041;-94
2022/12/27 08:07:37;;;;;;;9.40;2.08;;;;;;;;;;4972607;28;20038;-94
2022/12/27 08:10:05;;;;;;;19.33;2.60;;;;;;;;;;5005673;28;20475;-94
2022/12/27 08:12:31;;;;;;;8.32;2.05;;;;;;;;;;4981178;28;20371;-94
2022/12/27 08:15:06;;;;;;;10.32;2.13;;;;;;;;;;4979628;28;20132;-94
2022/12/27 08:17:32;;;;;;;13.65;2.28;;;;;;;;;;4975704;28;20049;-94
2022/12/27 08:19:58;;;;;;;13.48;2.15;;;;;;;;;;4968870;28;20401;-94
2022/12/27 08:22:29;;;;;;;7.00;2.25;;;;;;;;;;4976394;28;20537;-94
2022/12/27 08:24:57;;;;;;;8.35;1.80;;;;;;;;;;4991671;28;20033;-94
2022/12/27 08:27:29;;;;;;;9.23;1.48;;;;;;;;;;5006080;28;20056;-95
2022/12/27 08:29:55;;;;;;;22.70;2.35;;;;;;;;;;4991111;28;20030;-94
2022/12/27 08:32:22;;;;;;;24.80;2.28;;;;;;;;;;5002619;28;20033;-92
2022/12/27 08:34:48;;;;;;;15.60;3.13;;;;;;;;;;5001292;28;20466;-94
2022/12/27 08:37:14;;;;;;;10.95;3.38;;;;;;;;;;4992020;28;20116;-95
2022/12/27 08:39:41;;;;;;;16.83;2.45;;;;;;;;;;4971798;28;20057;-94
2022/12/27 08:42:10;;;;;;;7.72;2.88;;;;;;;;;;5001205;28;20469;-94
2022/12/27 08:44:39;;;;;;;18.23;3.53;;;;;;;;;;5006917;28;20489;-95
2022/12/27 08:47:08;;;;;;;21.15;3.05;;;;;;;;;;4991658;28;20033;-94
2022/12/27 08:49:34;;;;;;;11.48;2.50;;;;;;;;;;4987247;28;20034;-95
2022/12/27 08:52:02;;;;;;;11.07;2.42;;;;;;;;;;4984935;28;20101;-94
2022/12/27 08:54:31;;;;;;;7.65;2.30;;;;;;;;;;4998468;28;20014;-94
2022/12/27 08:56:57;;;;;;;9.15;2.05;;;;;;;;;;4971845;28;20135;-95
2022/12/27 08:59:23;;;;;;;6.60;1.42;;;;;;;;;;4989949;28;20088;-95
2022/12/27 09:01:49;;;;;;;2.53;0.88;;;;;;;;;;4976938;28;20114;-94
2022/12/27 09:04:15;;;;;;;14.38;2.63;;;;;;;;;;4975742;28;20033;-94
2022/12/27 09:06:41;;;;;;;13.50;2.47;;;;;;;;;;4988195;28;20086;-93
2022/12/27 09:09:07;;;;;;;10.55;2.33;;;;;;;;;;4975404;28;20030;-93
2022/12/27 09:11:34;;;;;;;17.63;2.45;;;;;;;;;;4974753;28;20033;-93
2022/12/27 09:14:01;;;;;;;10.55;2.55;;;;;;;;;;5004254;28;20049;-92
2022/12/27 09:16:27;;;;;;;8.85;2.30;;;;;;;;;;4986520;28;20049;-91
2022/12/27 09:18:54;;;;;;;13.45;2.67;;;;;;;;;;4975246;28;20030;-93
2022/12/27 09:21:21;;;;;;;9.00;1.65;;;;;;;;;;4988886;28;21044;-92
2022/12/27 09:23:48;;;;;;;18.27;2.58;;;;;;;;;;4988862;28;20030;-92
2022/12/27 09:26:16;;;;;;;17.00;1.85;;;;;;;;;;5005977;28;20084;-92
2022/12/27 09:28:43;;;;;;;9.48;2.05;;;;;;;;;;5002127;28;20044;-91
2022/12/27 09:31:11;;;;;;;11.23;2.58;;;;;;;;;;5000001;28;20040;-91
2022/12/27 09:33:37;;;;;;;6.90;1.70;;;;;;;;;;4981729;28;20044;-93
2022/12/27 09:36:08;;;;;;;8.02;1.73;;;;;;;;;;4984530;28;20083;-92
2022/12/27 09:38:34;;;;;;;4.18;1.33;;;;;;;;;;4987270;28;20038;-93
2022/12/27 09:41:01;;;;;;;22.30;3.08;;;;;;;;;;4987397;28;21059;-91
2022/12/27 09:43:41;;;;;;;24.80;3.28;;;;;;;;;;4999762;28;20030;-92
2022/12/27 09:46:14;;;;;;;9.18;1.58;;;;;;;;;;5004063;28;20496;-93
2022/12/27 09:48:40;;;;;;;12.25;2.28;;;;;;;;;;4998785;28;20386;-92
2022/12/27 09:51:09;;;;;;;6.88;1.65;;;;;;;;;;5003307;28;20025;-92
2022/12/27 09:53:54;;;;;;;13.13;2.72;;;;;;;;;;4998694;28;20565;-92
2022/12/27 09:56:26;;;;;;;11.02;1.48;;;;;;;;;;5004021;28;20022;-91
2022/12/27 09:59:26;;;;;;;8.93;2.30;;;;;;;;;;5004965;28;20029;-92
2022/12/27 10:01:52;;;;;;;9.10;2.10;;;;;;;;;;4978033;28;20034;-92
2022/12/27 10:04:19;;;;;;;4.78;2.20;;;;;;;;;;4986879;28;20038;-91
2022/12/27 10:06:48;;;;;;;11.73;2.50;;;;;;;;;;4989876;28;20056;-91
2022/12/27 10:09:33;;;;;;;10.93;1.80;;;;;;;;;;4990019;28;20027;-93
2022/12/27 10:12:09;;;;;;;12.00;1.85;;;;;;;;;;4988431;28;20030;-93
2022/12/27 10:14:35;;;;;;;9.15;2.75;;;;;;;;;;4999437;28;20641;-92
2022/12/27 10:17:11;;;;;;;10.40;2.13;;;;;;;;;;4988285;28;20041;-92
2022/12/27 10:19:37;;;;;;;;;;;;;;;;;;5002672;28;20073;-92
2022/12/27 10:22:03;;;;;;;6.40;1.92;;;;;;;;;;4997615;28;19957;-93
2022/12/27 10:24:53;;;;;;;12.27;2.38;;;;;;;;;;5000532;28;20045;-92
2022/12/27 10:27:24;;;;;;;6.32;2.30;;;;;;;;;;4990202;28;20030;-92
2022/12/27 10:30:13;;;;;;;4.93;1.40;;;;;;;;;;4993252;28;20088;-92
2022/12/27 10:32:57;;;;;;;;;;;;;;;;;;;;;
2022/12/27 10:35:29;;;;;;;16.25;2.38;;;;;;;;;;5006972;28;20030;-93
2022/12/27 10:37:58;;;;;;;10.25;2.00;;;;;;;;;;4975446;28;20034;-92
2022/12/27 10:40:34;;;;;;;19.25;3.50;;;;;;;;;;5001577;28;20042;-92
2022/12/27 10:43:01;;;;;;;;;;;;;;;;;;5004076;28;20060;-92
2022/12/27 10:45:27;;;;;;;6.32;1.33;;;;;;;;;;4995910;28;19941;-92
2022/12/27 10:47:59;;;;;;;22.20;2.78;;;;;;;;;;4996105;28;20605;-92
2022/12/27 10:50:26;;;;;;;11.57;2.83;;;;;;;;;;4999441;28;20018;-92
2022/12/27 10:52:52;;;;;;;8.48;1.55;;;;;;;;;;4976659;28;20485;-92
2022/12/27 10:55:37;;;;;;;13.70;1.95;;;;;;;;;;4979309;28;20516;-92
2022/12/27 10:58:27;;;;;;;11.60;2.50;;;;;;;;;;5009044;28;20481;-92
2022/12/27 11:00:54;;;;;;;9.88;2.15;;;;;;;;;;4955196;28;20041;-92
2022/12/27 11:03:20;;;;;;;5.90;1.58;;;;;;;;;;4974704;28;20041;-91
2022/12/27 11:05:58;;;;;;;8.00;2.03;;;;;;;;;;4974373;28;20065;-92
2022/12/27 11:08:43;;;;;;;7.40;2.08;;;;;;;;;;4982723;28;20030;-92
2022/12/27 11:11:26;;;;;;;13.48;2.30;;;;;;;;;;5002506;28;20073;-91
2022/12/27 11:14:25;;;;;;;9.00;2.40;;;;;;;;;;4985448;28;20397;-92
2022/12/27 11:16:50;;;;;;;8.77;2.20;;;;;;;;;;5006116;28;20030;-92
2022/12/27 11:19:24;;;;;;;10.88;2.50;;;;;;;;;;4974469;28;20029;-92
2022/12/27 11:21:51;;;;;;;11.68;2.47;;;;;;;;;;4987630;28;20034;-92
2022/12/27 11:24:19;;;;;;;8.50;2.20;;;;;;;;;;4997385;28;20050;-92
2022/12/27 11:27:07;;;;;;;6.63;2.58;;;;;;;;;;4996847;28;20026;-92
2022/12/27 11:29:33;;;;;;;12.23;1.90;;;;;;;;;;4972689;28;20046;-92
2022/12/27 11:32:08;;;;;;;14.43;2.80;;;;;;;;;;4973281;28;20562;-91
2022/12/27 11:34:36;;;;;;;16.33;1.90;;;;;;;;;;5000331;28;20034;-92
2022/12/27 11:37:04;;;;;;;16.75;5.28;;;;;;;;;;4982987;28;20084;-91
2022/12/27 11:39:48;;;;;;;13.65;2.58;;;;;;;;;;4988170;28;20113;-92
2022/12/27 11:42:24;;;;;;;8.55;1.45;;;;;;;;;;4986689;28;20042;-92
2022/12/27 11:44:49;;;;;;;;;;;;;;;;;;4988995;28;20041;-92
2022/12/27 11:47:15;;;;;;;9.40;2.13;;;;;;;;;;4986358;28;20393;-90
2022/12/27 11:49:50;;;;;;;9.70;2.58;;;;;;;;;;4995099;28;20042;-92
2022/12/27 11:52:28;;;;;;;4.88;1.20;;;;;;;;;;4989925;28;20033;-92
2022/12/27 11:55:06;;;;;;;1.83;1.55;;;;;;;;;;4993815;28;20123;-92
2022/12/27 11:57:42;;;;;;;6.30;1.60;;;;;;;;;;5002500;28;20134;-91
2022/12/27 12:00:26;;;;;;;11.88;2.50;;;;;;;;;;5000927;28;20544;-92
2022/12/27 12:03:13;;;;;;;6.72;2.40;;;;;;;;;;4989542;28;20038;-90
2022/12/27 12:05:45;;;;;;;12.65;2.15;;;;;;;;;;4987051;28;20124;-93
2022/12/27 12:08:11;;;;;;;6.65;2.08;;;;;;;;;;5002684;28;21941;-92
2022/12/27 12:10:47;;;;;;;10.63;2.45;;;;;;;;;;5004178;28;20053;-92
2022/12/27 12:13:32;;;;;;;7.25;2.38;;;;;;;;;;4987398;28;20493;-92
2022/12/27 12:16:17;;;;;;;8.45;2.38;;;;;;;;;;4994459;28;20498;-92
2022/12/27 12:18:55;;;;;;;2.28;1.02;;;;;;;;;;4999776;28;20058;-93
2022/12/27 12:21:40;;;;;;;24.13;2.45;;;;;;;;;;5000077;28;20034;-92
2022/12/27 12:24:25;;;;;;;12.65;2.92;;;;;;;;;;4985204;28;20022;-93
2022/12/27 12:27:12;;;;;;;7.22;2.58;;;;;;;;;;5003335;28;20496;-92
2022/12/27 12:29:57;;;;;;;4.70;1.83;;;;;;;;;;4989230;28;20026;-90
2022/12/27 12:32:35;;;;;;;6.93;2.20;;;;;;;;;;5001452;28;20022;-93
2022/12/27 12:35:25;;;;;;;9.38;2.22;;;;;;;;;;5005463;28;20500;-92
2022/12/27 12:38:10;;;;;;;8.57;3.75;;;;;;;;;;5001849;28;20374;-93
2022/12/27 12:40:54;;;;;;;11.48;2.42;;;;;;;;;;5001862;28;20030;-92
2022/12/27 12:43:36;;;;;;;7.63;1.95;;;;;;;;;;4987234;28;20029;-93
2022/12/27 12:46:13;;;;;;;9.25;2.17;;;;;;;;;;5007705;28;20109;-93
2022/12/27 12:48:57;;;;;;;11.15;2.50;;;;;;;;;;5004838;28;20043;-93
2022/12/27 12:51:42;;;;;;;6.78;2.03;;;;;;;;;;4990447;28;20478;-92
2022/12/27 12:54:28;;;;;;;3.83;1.25;;;;;;;;;;4988516;28;20042;-93
2022/12/27 12:57:06;;;;;;;10.07;1.80;;;;;;;;;;4985980;28;20041;-93
2022/12/27 12:59:44;;;;;;;5.55;1.38;;;;;;;;;;4995724;28;20051;-93
2022/12/27 13:02:23;;;;;;;7.55;1.98;;;;;;;;;;4991416;28;20037;-93
2022/12/27 13:05:01;;;;;;;8.63;1.52;;;;;;;;;;4988315;28;20038;-92
2022/12/27 13:07:33;;;;;;;12.63;2.83;;;;;;;;;;4982912;28;20069;-93
2022/12/27 13:10:18;;;;;;;8.68;1.67;;;;;;;;;;5001339;28;20576;-92
2022/12/27 13:12:53;;;;;;;7.55;1.92;;;;;;;;;;4996820;28;20058;-92
2022/12/27 13:15:22;;;;;;;17.42;2.67;;;;;;;;;;4987605;28;20025;-92
2022/12/27 13:17:54;;;;;;;15.57;2.58;;;;;;;;;;4984775;28;20034;-92
2022/12/27 13:20:40;;;;;;;7.20;2.13;;;;;;;;;;4990429;28;20503;-94
2022/12/27 13:23:13;;;;;;;8.77;1.90;;;;;;;;;;4988793;28;20033;-93
2022/12/27 13:25:44;;;;;;;6.25;1.48;;;;;;;;;;5003335;28;20776;-93
2022/12/27 13:28:13;;;;;;;6.15;1.67;;;;;;;;;;4990396;28;20409;-93
2022/12/27 13:30:52;;;;;;;14.93;2.53;;;;;;;;;;4989660;28;20032;-93
2022/12/27 13:33:18;;;;;;;6.53;1.88;;;;;;;;;;5000214;28;20053;-93
2022/12/27 13:36:03;;;;;;;8.35;1.67;;;;;;;;;;4992282;28;20030;-93
2022/12/27 13:38:32;;;;;;;10.13;2.15;;;;;;;;;;5003368;28;20474;-93
2022/12/27 13:41:17;;;;;;;4.22;1.50;;;;;;;;;;4986204;28;20475;-92
2022/12/27 13:43:50;;;;;;;11.63;2.17;;;;;;;;;;4999763;28;20474;-93
2022/12/27 13:46:36;;;;;;;6.50;1.85;;;;;;;;;;4988646;28;20046;-93
2022/12/27 13:49:14;;;;;;;11.27;2.45;;;;;;;;;;4982025;28;20453;-93
2022/12/27 13:51:47;;;;;;;13.60;2.38;;;;;;;;;;4978313;28;20042;-92
2022/12/27 13:54:14;;;;;;;11.73;2.45;;;;;;;;;;4981606;28;20026;-93
2022/12/27 13:56:58;;;;;;;15.23;2.50;;;;;;;;;;4985637;28;20493;-92
2022/12/27 13:59:40;;;;;;;12.05;2.28;;;;;;;;;;5006324;28;20088;-93
2022/12/27 14:02:39;;;;;;;14.20;2.40;;;;;;;;;;5006508;28;20031;-93
2022/12/27 14:05:17;;;;;;;13.63;2.08;;;;;;;;;;4945178;28;20045;-92
2022/12/27 14:08:02;;;;;;;17.30;2.03;;;;;;;;;;4997530;28;20054;-93
2022/12/27 14:10:36;;;;;;;8.82;2.20;;;;;;;;;;4999848;28;20018;-93
2022/12/27 14:13:11;;;;;;;8.77;2.78;;;;;;;;;;4967379;28;20045;-93
2022/12/27 14:15:58;;;;;;;3.85;1.90;;;;;;;;;;4968865;28;20578;-93
2022/12/27 14:18:43;;;;;;;14.68;2.88;;;;;;;;;;5003425;28;20506;-93
2022/12/27 14:21:15;;;;;;;19.42;3.00;;;;;;;;;;4988426;28;20528;-92
2022/12/27 14:23:53;;;;;;;4.13;1.48;;;;;;;;;;4989811;28;20042;-93
2022/12/27 14:26:29;;;;;;;15.55;3.05;;;;;;;;;;5005908;28;20072;-93
2022/12/27 14:29:04;;;;;;;7.05;2.10;;;;;;;;;;5005869;28;20042;-92
2022/12/27 14:31:36;;;;;;;11.52;2.95;;;;;;;;;;4992643;28;20034;-93
2022/12/27 14:34:15;;;;;;;20.42;3.08;;;;;;;;;;4988958;28;20034;-93
2022/12/27 14:36:50;;;;;;;11.32;2.58;;;;;;;;;;5002965;28;20030;-93
2022/12/27 14:39:35;;;;;;;6.28;2.22;;;;;;;;;;5004291;28;20389;-93
2022/12/27 14:42:08;;;;;;;8.43;2.08;;;;;;;;;;4988607;28;20030;-93
2022/12/27 14:44:46;;;;;;;17.20;3.05;;;;;;;;;;4991310;28;20034;-93
2022/12/27 14:47:15;;;;;;;8.60;2.95;;;;;;;;;;5004009;28;20034;-92
2022/12/27 14:50:00;;;;;;;14.55;3.38;;;;;;;;;;4993919;28;20536;-93
2022/12/27 14:52:29;;;;;;;13.38;2.75;;;;;;;;;;5001775;28;20478;-93
2022/12/27 14:55:01;;;;;;;5.97;2.03;;;;;;;;;;4986154;28;20115;-93
2022/12/27 14:57:47;;;;;;;4.47;2.10;;;;;;;;;;5003468;28;20311;-93
2022/12/27 15:00:15;;;;;;;8.50;2.20;;;;;;;;;;4991601;28;20536;-93
2022/12/27 15:02:41;;;;;;;9.65;2.55;;;;;;;;;;5008093;28;20034;-92
2022/12/27 15:05:10;;;;;;;22.17;3.97;;;;;;;;;;5005966;28;20042;-93
2022/12/27 15:07:39;;;;;;;16.20;3.88;;;;;;;;;;4995554;28;20038;-93
2022/12/27 15:10:06;;;;;;;17.08;4.03;;;;;;;;;;5002771;28;20026;-93
2022/12/27 15:12:45;;;;;;;9.25;2.38;;;;;;;;;;4988104;28;20500;-92
2022/12/27 15:15:19;;;;;;;13.52;4.00;;;;;;;;;;5004137;28;20022;-92
2022/12/27 15:17:52;;;;;;;12.65;3.95;;;;;;;;;;5002257;28;20038;-93
2022/12/27 15:20:18;;;;;;;10.98;3.05;;;;;;;;;;5000775;28;20029;-93
2022/12/27 15:23:03;;;;;;;8.10;3.10;;;;;;;;;;4999891;28;20030;-92
2022/12/27 15:25:48;;;;;;;22.40;5.43;;;;;;;;;;5001679;28;20042;-93
2022/12/27 15:28:19;;;;;;;21.75;4.53;;;;;;;;;;4991073;28;20547;-92
2022/12/27 15:30:59;;;;;;;15.80;5.00;;;;;;;;;;5004727;28;20501;-92
2022/12/27 15:33:34;;;;;;;12.23;5.35;;;;;;;;;;4997034;28;20037;-92
2022/12/27 15:36:08;;;;;;;15.07;5.65;;;;;;;;;;4996829;28;20062;-93
2022/12/27 15:38:49;;;;;;;18.70;5.22;;;;;;;;;;4989318;28;20419;-93
2022/12/27 15:41:20;;;;;;;16.10;5.03;;;;;;;;;;5004807;28;20044;-92
2022/12/27 15:44:11;;;;;;;13.35;5.53;;;;;;;;;;5006179;28;20041;-93
2022/12/27 15:46:43;;;;;;;10.90;4.85;;;;;;;;;;4985173;28;20405;-92
2022/12/27 15:49:17;;;;;;;11.82;5.30;;;;;;;;;;5002803;28;20033;-90
2022/12/27 15:51:54;;;;;;;25.27;2.17;;;;;;;;;;4996760;28;20184;-92
2022/12/27 15:54:39;;;;;;;15.68;6.55;;;;;;;;;;4999261;28;20114;-92
2022/12/27 15:57:20;;;;;;;9.07;3.67;;;;;;;;;;4997447;28;20030;-92
2022/12/27 15:59:47;;;;;;;20.88;6.85;;;;;;;;;;4985974;28;20038;-91
2022/12/27 16:02:16;;;;;;;13.07;6.10;;;;;;;;;;4997910;28;20036;-92
2022/12/27 16:04:50;;;;;;;24.58;7.03;;;;;;;;;;5001690;28;20287;-91
2022/12/27 16:07:35;;;;;;;17.60;6.05;;;;;;;;;;4997557;28;20145;-91
2022/12/27 16:10:20;;;;;;;19.83;5.15;;;;;;;;;;4987777;28;20143;-91
2022/12/27 16:12:47;;;;;;;15.65;4.85;;;;;;;;;;4975649;28;20026;-91
2022/12/27 16:15:32;;;;;;;23.58;8.13;;;;;;;;;;4987679;28;20132;-92
2022/12/27 16:17:58;;;;;;;17.95;6.22;;;;;;;;;;4996719;28;20519;-91
2022/12/27 16:20:25;;;;;;;14.65;6.32;;;;;;;;;;4970383;28;20394;-91
2022/12/27 16:23:06;;;;;;;26.10;7.18;;;;;;;;;;4997335;28;20049;-92
2022/12/27 16:25:42;;;;;;;12.55;4.80;;;;;;;;;;4995687;28;20517;-91
2022/12/27 16:28:22;;;;;;;32.10;4.82;;;;;;;;;;4978496;28;20041;-92
2022/12/27 16:31:14;;;;;;;;;;;;;;;;;;;;;
2022/12/27 16:33:46;;;;;;;9.85;5.05;;;;;;;;;;4980964;28;20045;-92
2022/12/27 16:36:14;;;;;;;15.63;6.40;;;;;;;;;;4970306;28;20568;-92
2022/12/27 16:39:03;;;;;;;17.13;7.70;;;;;;;;;;5001915;28;20038;-92
2022/12/27 16:41:38;;;;;;;19.08;7.95;;;;;;;;;;4997931;28;20031;-92
2022/12/27 16:44:25;;;;;;;8.00;4.90;;;;;;;;;;4981157;28;20030;-92